Hilversum Aerodrome

EHHV · North Holland, 荷兰

罗盘
风向 的 风向 080° Hilversum Aerodrome 7/25
风: 8 kt, 3 beaufort

8 kt

2 kt
改变
0 1.000 2.000 3.000 4.000 5.000
SCT 1.600 ft
METAR EHAM 032155Z 08008KT 9999 SCT016 00/M03 Q1019 NOSIG

METAR Hilversum Aerodrome - EHHV

Hilversum Aerodrome是,荷兰中的小机场。 该机场有3条跑道: 7/25, 12/30 和 18/36. 该领域的国际民航组织标志是EHHV.

这份报告是针对2022年12月3日 22:55, 当地时间在Amsterdam Airport Schiphol进行的。

机场观察

风向为080°,速度为8 kt。

可见度为10 km 或者更多。

有疏云,零星散落的云朵在1.600 ft的高度。 没有观察到天花板。

温度为0 °C,阵风为-6 °C。 露点为-3 °C,相对湿度为80%。 海平面上的气压为1019 hPa (QNH)。

白天

今天,太阳从08:28升起,在16:29降落。 这适用于Hilversum Aerodrome,世界夏令时可能有所不同。 当地时间与世界标准时间之间的时差为+1 小时。 当前,没有夏令时有效。

公司介绍

在这个机场,你可以找到飞行学校。 这个机场上的公司有Vliegles.nl, Vliegschool Hilversum, Dwarf Vliegschool, Oscar Luchtvaartbedrijf 和 PPL-e-Learning。

体会

在这个机场有飞行课程。 你可以在没有任何经验的情况下预订飞行课程。 在Hilversum Aerodrome预订最多的飞行课程类型是Cessna flying lesson。 这些课程的价格从€ 149开始。 在这里阅读更多关于Cessna flying lesson的信息。你也可以在这个网站上进行预订。

跑道

Id 标题 侧风 逆风 侧风 %
7/25 068°-248° 2 kt 8 kt 21 %
12/30 120°-300° 5 kt 6 kt 64 %
18/36 177°-357° 8 kt 99 %

逆风成分最大的方向会被突出显示,并用于横风计算。 这并不一定意味着这个方向在使用。

乌云

1.600 ft SCT 疏云,零星散落的云朵

温度 & 天气

温度 0 °C
露点 -3 °C
相对湿度 80%
风寒 -6 °C
Kp-index 0 (0-9)

白天

日出
08:30 (9:10)
中午
12:30
日落
16:30

小工具

你想在你的网站上有一个关于Hilversum Aerodrome的当前航空天气(METAR)的小部件吗?

显示HTML代码

我们和第三方通过cookies跟踪您在我们网站上的互联网行为。如果你继续,我们认为你同意我们的饼干政策